createdAt,value
2018-01-23T00:01:18.206Z,6.90
2018-01-23T00:03:45.644Z,5.80
2018-01-23T00:06:13.070Z,6.50
2018-01-23T00:08:41.274Z,6.60
2018-01-23T00:11:08.711Z,6.60
2018-01-23T00:13:36.918Z,7.47
2018-01-23T00:16:04.359Z,6.50
2018-01-23T00:18:31.806Z,7.30
2018-01-23T00:21:00.000Z,5.70
2018-01-23T00:23:27.442Z,7.30
2018-01-23T00:25:54.878Z,6.80
2018-01-23T00:28:23.092Z,7.47
2018-01-23T00:30:50.526Z,7.20
2018-01-23T00:33:17.967Z,6.30
2018-01-23T00:35:46.172Z,7.37
2018-01-23T00:38:13.610Z,7.23
2018-01-23T00:40:41.051Z,7.33
2018-01-23T00:43:09.264Z,7.70
2018-01-23T00:45:36.700Z,7.10
2018-01-23T00:48:04.139Z,7.33
2018-01-23T00:50:32.347Z,8.27
2018-01-23T00:52:59.799Z,7.50
2018-01-23T00:55:27.236Z,6.80
2018-01-23T00:57:55.440Z,7.60
2018-01-23T01:00:22.875Z,7.40
2018-01-23T01:02:50.326Z,10.17
2018-01-23T01:05:17.766Z,8.23
2018-01-23T01:07:45.975Z,7.83
2018-01-23T01:10:13.419Z,8.83
2018-01-23T01:12:40.855Z,8.60
2018-01-23T01:15:09.054Z,7.10
2018-01-23T01:17:36.495Z,6.33
2018-01-23T01:20:04.701Z,7.40
2018-01-23T01:22:32.149Z,7.07
2018-01-23T01:24:59.586Z,7.10
2018-01-23T01:27:27.023Z,6.50
2018-01-23T01:29:55.235Z,6.97
2018-01-23T01:32:22.659Z,6.77
2018-01-23T01:34:50.868Z,5.90
2018-01-23T01:37:18.307Z,5.70
2018-01-23T01:39:45.746Z,6.20
2018-01-23T01:42:13.950Z,5.97
2018-01-23T01:44:41.389Z,6.10
2018-01-23T01:47:08.830Z,5.40
2018-01-23T01:49:36.273Z,5.60
2018-01-23T01:52:03.751Z,4.90
2018-01-23T01:54:31.950Z,5.47
2018-01-23T01:56:59.399Z,5.10
2018-01-23T01:59:26.843Z,5.87
2018-01-23T02:01:54.288Z,4.97
2018-01-23T02:04:22.518Z,4.90
2018-01-23T02:06:49.943Z,5.23
2018-01-23T02:09:17.390Z,5.13
2018-01-23T02:11:44.827Z,4.30
2018-01-23T02:14:13.030Z,5.17
2018-01-23T02:16:40.466Z,4.00
2018-01-23T02:19:08.674Z,5.00
2018-01-23T02:21:36.115Z,5.20
2018-01-23T02:24:03.554Z,4.17
2018-01-23T02:26:31.759Z,4.10
2018-01-23T02:28:59.218Z,4.47
2018-01-23T02:31:26.655Z,4.73
2018-01-23T02:33:54.111Z,4.67
2018-01-23T02:36:21.546Z,5.23
2018-01-23T02:38:49.746Z,4.70
2018-01-23T02:41:17.188Z,4.20
2018-01-23T02:43:44.618Z,4.00
2018-01-23T02:46:12.068Z,4.30
2018-01-23T02:48:39.506Z,3.83
2018-01-23T02:51:06.960Z,4.90
2018-01-23T02:53:34.395Z,4.27
2018-01-23T02:56:01.846Z,3.80
2018-01-23T02:58:29.309Z,5.00
2018-01-23T03:00:56.742Z,4.00
2018-01-23T03:03:24.174Z,4.10
2018-01-23T03:05:52.383Z,4.00
2018-01-23T03:08:19.813Z,4.10
2018-01-23T03:10:48.050Z,4.93
2018-01-23T03:13:15.487Z,4.30
2018-01-23T03:15:42.945Z,4.73
2018-01-23T03:18:10.366Z,3.83
2018-01-23T03:20:38.578Z,4.00
2018-01-23T03:23:06.012Z,4.33
2018-01-23T03:25:33.450Z,5.13
2018-01-23T03:28:01.656Z,5.27
2018-01-23T03:30:29.091Z,4.87
2018-01-23T03:32:56.534Z,4.17
2018-01-23T03:35:24.738Z,4.50
2018-01-23T03:37:52.175Z,3.67
2018-01-23T03:40:19.619Z,4.17
2018-01-23T03:42:47.826Z,3.90
2018-01-23T03:45:15.272Z,4.73
2018-01-23T03:47:42.702Z,4.20
2018-01-23T03:50:10.902Z,4.00
2018-01-23T03:52:38.338Z,3.00
2018-01-23T03:55:06.555Z,3.20
2018-01-23T03:57:33.998Z,3.17
2018-01-23T04:00:01.428Z,4.03
2018-01-23T04:02:29.630Z,3.50
2018-01-23T04:04:57.059Z,3.57
2018-01-23T04:07:24.497Z,3.53
2018-01-23T04:09:52.704Z,4.03
2018-01-23T04:12:20.159Z,3.77
2018-01-23T04:14:47.601Z,3.27
2018-01-23T04:17:15.816Z,3.60
2018-01-23T04:19:43.251Z,3.30
2018-01-23T04:22:10.694Z,3.60
2018-01-23T04:24:38.133Z,3.07
2018-01-23T04:27:07.224Z,2.93
2018-01-23T04:29:35.431Z,4.00
2018-01-23T04:32:02.878Z,3.63
2018-01-23T04:34:30.316Z,3.47
2018-01-23T04:36:58.519Z,4.10
2018-01-23T04:39:25.953Z,3.53
2018-01-23T04:41:54.158Z,3.67
2018-01-23T04:44:21.597Z,3.00
2018-01-23T04:46:49.043Z,3.30
2018-01-23T04:49:17.239Z,2.87
2018-01-23T04:51:44.684Z,3.80
2018-01-23T04:54:12.122Z,2.60
2018-01-23T04:56:40.330Z,2.70
2018-01-23T04:59:07.779Z,2.50
2018-01-23T05:01:35.223Z,3.20
2018-01-23T05:04:02.654Z,3.10
2018-01-23T05:06:30.087Z,3.43
2018-01-23T05:08:57.539Z,2.97
2018-01-23T05:11:24.977Z,3.00
2018-01-23T05:13:52.420Z,5.93
2018-01-23T05:16:19.855Z,2.50
2018-01-23T05:18:47.299Z,2.60
2018-01-23T05:21:15.500Z,2.60
2018-01-23T05:23:42.959Z,3.03
2018-01-23T05:26:10.387Z,2.63
2018-01-23T05:28:38.594Z,2.70
2018-01-23T05:31:06.856Z,2.50
2018-01-23T05:33:34.360Z,2.70
2018-01-23T05:36:01.810Z,3.30
2018-01-23T05:38:29.247Z,3.07
2018-01-23T05:40:56.679Z,2.80
2018-01-23T05:43:24.119Z,2.20
2018-01-23T05:45:52.324Z,2.60
2018-01-23T05:48:19.761Z,2.40
2018-01-23T05:50:47.206Z,2.20
2018-01-23T07:15:12.498Z,3.57
2018-01-23T07:17:39.942Z,3.97
2018-01-23T07:20:07.418Z,3.50
2018-01-23T07:22:34.853Z,3.90
2018-01-23T07:25:02.295Z,3.90
2018-01-23T07:30:20.397Z,3.30
2018-01-23T07:32:49.333Z,3.40
2018-01-23T07:35:16.779Z,3.47
2018-01-23T07:37:44.978Z,3.60
2018-01-23T07:40:12.418Z,3.23
2018-01-23T07:42:39.854Z,3.73
2018-01-23T07:45:08.063Z,2.90
2018-01-23T07:47:35.494Z,4.00
2018-01-23T07:50:02.939Z,4.13
2018-01-23T07:52:31.138Z,4.10
2018-01-23T07:54:58.573Z,4.93
2018-01-23T07:57:26.779Z,3.37
2018-01-23T07:59:54.213Z,4.63
2018-01-23T08:02:21.654Z,3.67
2018-01-23T08:04:49.854Z,4.03
2018-01-23T08:07:17.294Z,4.17
2018-01-23T08:09:45.516Z,3.37
2018-01-23T08:12:12.946Z,3.60
2018-01-23T08:14:40.382Z,3.20
2018-01-23T08:17:08.597Z,4.20
2018-01-23T08:19:36.032Z,3.90
2018-01-23T08:22:03.470Z,3.73
2018-01-23T08:24:31.667Z,3.20
2018-01-23T08:26:59.108Z,2.80
2018-01-23T08:29:26.533Z,2.90
2018-01-23T08:31:53.984Z,4.13
2018-01-23T08:34:21.423Z,3.10
2018-01-23T08:36:48.875Z,3.37
2018-01-23T08:39:16.307Z,3.90
2018-01-23T08:41:43.750Z,4.17
2018-01-23T08:44:11.182Z,3.33
2018-01-23T08:46:39.399Z,3.53
2018-01-23T08:49:06.836Z,4.80
2018-01-23T08:51:34.275Z,3.83
2018-01-23T08:54:02.479Z,2.83
2018-01-23T08:56:29.914Z,3.60
2018-01-23T08:58:57.359Z,2.60
2018-01-23T09:01:25.554Z,3.10
2018-01-23T09:03:52.990Z,3.70
2018-01-23T09:06:21.201Z,4.13
2018-01-23T09:08:48.626Z,3.27
2018-01-23T09:11:16.070Z,3.60
2018-01-23T09:13:44.272Z,2.40
2018-01-23T09:16:11.715Z,3.30
2018-01-23T09:18:39.914Z,3.50
2018-01-23T09:21:07.354Z,3.90
2018-01-23T09:23:34.788Z,3.83
2018-01-23T09:26:02.985Z,3.20
2018-01-23T09:28:30.422Z,3.20
2018-01-23T09:30:58.623Z,3.53
2018-01-23T09:33:26.062Z,3.50
2018-01-23T09:35:53.498Z,3.53
2018-01-23T09:38:21.699Z,3.37
2018-01-23T09:40:49.138Z,3.60
2018-01-23T09:43:17.357Z,4.53
2018-01-23T09:45:44.782Z,2.80
2018-01-23T09:48:12.227Z,3.23
2018-01-23T09:50:40.430Z,3.07
2018-01-23T09:53:07.869Z,3.40
2018-01-23T09:55:35.306Z,3.07
2018-01-23T09:58:03.506Z,3.27
2018-01-23T10:00:30.942Z,3.80
2018-01-23T10:02:59.206Z,4.00
2018-01-23T10:05:26.595Z,4.00
2018-01-23T10:07:54.039Z,3.03
2018-01-23T10:10:22.235Z,3.30
2018-01-23T10:12:49.679Z,2.57
2018-01-23T10:15:17.111Z,2.80
2018-01-23T10:17:45.323Z,3.63
2018-01-23T10:20:12.754Z,3.03
2018-01-23T10:22:40.200Z,3.50
2018-01-23T10:25:08.408Z,3.10
2018-01-23T10:27:35.865Z,3.63
2018-01-23T10:30:03.298Z,3.40
2018-01-23T10:32:30.738Z,3.57
2018-01-23T10:34:58.945Z,3.40
2018-01-23T10:37:26.387Z,4.07
2018-01-23T10:39:53.822Z,3.00
2018-01-23T10:42:22.035Z,2.70
2018-01-23T10:44:49.470Z,3.10
2018-01-23T10:47:16.908Z,3.27
2018-01-23T10:49:45.119Z,3.53
2018-01-23T10:52:12.546Z,2.83
2018-01-23T10:54:40.754Z,3.67
2018-01-23T10:57:08.190Z,3.23
2018-01-23T10:59:35.632Z,2.73
2018-01-23T11:02:03.836Z,3.13
2018-01-23T11:04:31.369Z,3.40
2018-01-23T11:06:58.751Z,3.20
2018-01-23T11:09:26.195Z,2.53
2018-01-23T11:11:53.626Z,2.80
2018-01-23T11:14:21.066Z,2.73
2018-01-23T11:16:48.507Z,2.97
2018-01-23T11:19:15.956Z,2.93
2018-01-23T11:21:43.396Z,3.40
2018-01-23T11:24:10.838Z,2.80
2018-01-23T11:26:38.275Z,3.10
2018-01-23T11:29:06.479Z,2.90
2018-01-23T11:31:33.916Z,2.60
2018-01-23T11:34:01.359Z,3.67
2018-01-23T11:36:29.563Z,4.23
2018-01-23T11:38:57.003Z,2.63
2018-01-23T11:41:24.434Z,2.20
2018-01-23T11:43:52.643Z,4.00
2018-01-23T11:46:20.087Z,2.57
2018-01-23T11:48:47.526Z,2.10
2018-01-23T11:51:15.731Z,2.67
2018-01-23T11:53:43.178Z,2.60
2018-01-23T11:56:10.619Z,2.47
2018-01-23T11:58:38.818Z,2.87
2018-01-23T12:01:06.267Z,2.60
2018-01-23T12:03:33.702Z,2.60
2018-01-23T12:06:02.013Z,2.43
2018-01-23T12:08:29.437Z,2.60
2018-01-23T12:10:57.639Z,3.00
2018-01-23T12:13:25.077Z,2.30
2018-01-23T12:15:52.516Z,2.60
2018-01-23T12:18:20.714Z,2.60
2018-01-23T12:20:48.151Z,2.77
2018-01-23T12:23:16.355Z,2.63
2018-01-23T12:25:43.786Z,2.10
2018-01-23T12:28:11.983Z,2.20
2018-01-23T12:30:39.423Z,2.40
2018-01-23T12:33:06.864Z,2.10
2018-01-23T12:35:35.102Z,2.83
2018-01-23T12:38:02.503Z,2.47
2018-01-23T12:40:30.718Z,2.80
2018-01-23T12:42:58.150Z,3.40
2018-01-23T12:45:25.594Z,2.50
2018-01-23T12:47:53.036Z,2.53
2018-01-23T12:50:21.238Z,2.57
2018-01-23T12:52:48.679Z,2.60
2018-01-23T12:55:16.123Z,2.60
2018-01-23T12:57:44.332Z,2.93
2018-01-23T13:00:11.776Z,3.17
2018-01-23T13:02:39.218Z,3.40
2018-01-23T13:05:07.422Z,3.03
2018-01-23T13:07:34.859Z,3.33
2018-01-23T13:10:02.296Z,3.23
2018-01-23T13:12:30.503Z,3.17
2018-01-23T13:14:57.947Z,3.57
2018-01-23T13:17:25.382Z,3.40
2018-01-23T13:19:53.590Z,3.60
2018-01-23T13:22:21.022Z,3.37
2018-01-23T13:24:49.222Z,2.87
2018-01-23T13:27:16.667Z,3.03
2018-01-23T13:29:44.099Z,3.53
2018-01-23T13:32:12.307Z,3.57
2018-01-23T13:34:39.743Z,4.10
2018-01-23T13:37:07.186Z,3.37
2018-01-23T13:39:35.392Z,3.80
2018-01-23T13:42:02.822Z,4.13
2018-01-23T13:44:31.026Z,3.77
2018-01-23T13:46:58.462Z,2.83
2018-01-23T13:49:25.906Z,2.50
2018-01-23T13:51:54.098Z,3.93
2018-01-23T13:54:21.534Z,3.30
2018-01-23T13:56:49.739Z,3.70
2018-01-23T13:59:17.170Z,2.90
2018-01-23T14:01:45.378Z,3.10
2018-01-23T14:04:12.814Z,3.60
2018-01-23T14:06:40.261Z,3.37
2018-01-23T14:09:08.459Z,3.60
2018-01-23T14:11:35.906Z,2.80
2018-01-23T14:14:03.334Z,3.10
2018-01-23T14:16:31.540Z,2.50
2018-01-23T14:18:58.970Z,2.50
2018-01-23T14:21:27.174Z,2.53
2018-01-23T14:23:54.612Z,2.50
2018-01-23T14:26:22.050Z,2.90
2018-01-23T14:28:50.255Z,3.07
2018-01-23T14:31:17.694Z,2.70
2018-01-23T14:33:45.887Z,2.77
2018-01-23T14:36:13.351Z,2.97
2018-01-23T14:38:40.783Z,2.77
2018-01-23T14:41:08.218Z,2.83
2018-01-23T14:43:36.428Z,3.10
2018-01-23T14:46:03.858Z,2.23
2018-01-23T14:48:32.062Z,3.00
2018-01-23T14:50:59.498Z,2.93
2018-01-23T14:53:26.934Z,2.70
2018-01-23T14:55:55.143Z,3.00
2018-01-23T14:58:22.586Z,2.53
2018-01-23T15:00:50.023Z,3.10
2018-01-23T15:03:18.226Z,3.13
2018-01-23T15:05:45.664Z,3.60
2018-01-23T15:08:13.870Z,2.60
2018-01-23T15:10:41.307Z,2.90
2018-01-23T15:13:08.751Z,3.50
2018-01-23T15:15:36.951Z,3.43
2018-01-23T15:18:04.407Z,3.40
2018-01-23T15:20:31.832Z,2.73
2018-01-23T15:23:00.042Z,2.80
2018-01-23T15:25:27.475Z,3.10
2018-01-23T15:27:54.919Z,2.80
2018-01-23T15:30:23.118Z,2.40
2018-01-23T15:32:50.555Z,3.00
2018-01-23T15:35:18.762Z,2.47
2018-01-23T15:37:46.203Z,2.47
2018-01-23T15:40:13.642Z,2.20
2018-01-23T15:42:41.846Z,2.40
2018-01-23T15:45:09.284Z,2.00
2018-01-23T15:47:36.730Z,2.77
2018-01-23T15:50:04.927Z,2.67
2018-01-23T15:52:32.362Z,2.23
2018-01-23T15:54:59.823Z,2.43
2018-01-23T15:57:27.261Z,2.77
2018-01-23T15:59:55.470Z,2.90
2018-01-23T16:02:22.902Z,2.57
2018-01-23T16:04:51.113Z,3.10
2018-01-23T16:07:18.551Z,4.17
2018-01-23T16:09:45.995Z,4.10
2018-01-23T16:12:13.434Z,3.80
2018-01-23T16:14:41.647Z,3.60
2018-01-23T16:17:09.078Z,3.97
2018-01-23T16:19:36.519Z,3.13
2018-01-23T16:22:04.724Z,5.13
2018-01-23T16:24:32.171Z,4.10
2018-01-23T16:26:59.602Z,4.00
2018-01-23T16:29:27.812Z,4.33
2018-01-23T16:31:55.243Z,3.57
2018-01-23T16:34:23.447Z,4.20
2018-01-23T16:36:50.886Z,5.23
2018-01-23T16:39:18.329Z,4.40
2018-01-23T16:41:46.531Z,4.30
2018-01-23T16:44:13.979Z,5.20
2018-01-23T16:46:41.414Z,5.57
2018-01-23T16:49:09.621Z,6.00
2018-01-23T16:51:37.058Z,7.73
2018-01-23T16:54:04.503Z,7.73
2018-01-23T16:56:32.710Z,7.07
2018-01-23T16:59:00.150Z,6.63
2018-01-23T17:01:27.599Z,6.80
2018-01-23T17:03:55.038Z,6.67
2018-01-23T17:06:23.246Z,5.90
2018-01-23T17:08:50.683Z,5.03
2018-01-23T17:11:18.126Z,6.43
2018-01-23T17:13:46.326Z,6.47
2018-01-23T17:16:13.778Z,5.53
2018-01-23T17:18:41.207Z,5.60
2018-01-23T17:21:09.415Z,6.50
2018-01-23T17:23:36.854Z,4.17
2018-01-23T17:26:05.059Z,3.70
2018-01-23T17:28:32.499Z,4.10
2018-01-23T17:30:59.939Z,4.83
2018-01-23T17:33:28.144Z,7.73
2018-01-23T17:35:55.585Z,5.27
2018-01-23T17:38:23.014Z,7.27
2018-01-23T17:40:51.267Z,7.97
2018-01-23T17:43:18.730Z,15.00
2018-01-23T17:45:46.191Z,15.37
2018-01-23T17:48:13.619Z,14.90
2018-01-23T17:50:41.117Z,17.30
2018-01-23T17:53:08.553Z,10.10
2018-01-23T17:55:35.991Z,6.87
2018-01-23T17:58:03.430Z,7.27
2018-01-23T18:00:40.535Z,6.70
2018-01-23T18:03:07.966Z,6.60
2018-01-23T18:05:35.430Z,6.80
2018-01-23T18:08:02.950Z,7.57
2018-01-23T18:10:30.363Z,7.07
2018-01-23T18:12:57.798Z,7.07
2018-01-23T18:15:25.245Z,6.60
2018-01-23T18:17:52.735Z,7.53
2018-01-23T18:20:20.209Z,9.00
2018-01-23T18:22:47.642Z,11.10
2018-01-23T18:25:15.086Z,11.87
2018-01-23T18:27:42.591Z,9.03
2018-01-23T18:30:10.016Z,9.30
2018-01-23T18:32:37.453Z,8.60
2018-01-23T18:35:04.899Z,7.90
2018-01-23T18:37:32.346Z,6.50
2018-01-23T18:39:59.787Z,5.53
2018-01-23T18:42:27.276Z,5.50
2018-01-23T18:44:54.708Z,5.50
2018-01-23T18:47:22.149Z,5.50
2018-01-23T18:49:50.402Z,5.57
2018-01-23T18:52:17.878Z,4.97
2018-01-23T18:54:46.066Z,6.10
2018-01-23T18:57:13.502Z,5.93
2018-01-23T18:59:41.714Z,6.20
2018-01-23T19:02:09.213Z,6.00
2018-01-23T19:04:36.689Z,6.03
2018-01-23T19:07:04.165Z,8.50
2018-01-23T19:09:32.396Z,6.67
2018-01-23T19:11:59.825Z,7.20
2018-01-23T19:14:27.270Z,5.93
2018-01-23T19:16:54.761Z,7.03
2018-01-23T19:19:22.177Z,5.50
2018-01-23T19:21:49.677Z,6.30
2018-01-23T19:24:17.118Z,6.13
2018-01-23T19:26:44.555Z,6.57
2018-01-23T19:29:12.054Z,6.20
2018-01-23T19:31:39.478Z,6.90
2018-01-23T19:34:06.970Z,7.30
2018-01-23T19:36:34.452Z,6.50
2018-01-23T19:39:01.930Z,10.23
2018-01-23T19:41:29.403Z,8.20
2018-01-23T19:43:57.706Z,9.90
2018-01-23T19:46:25.186Z,8.20
2018-01-23T19:48:52.662Z,7.10
2018-01-23T19:51:20.908Z,7.07
2018-01-23T19:53:48.398Z,9.40
2018-01-23T19:56:16.587Z,9.80
2018-01-23T19:58:44.031Z,8.90
2018-01-23T20:01:11.474Z,8.23
2018-01-23T20:03:39.725Z,7.50
2018-01-23T20:06:07.202Z,7.27
2018-01-23T20:08:34.659Z,7.40
2018-01-23T20:11:02.876Z,7.10
2018-01-23T20:13:30.311Z,7.40
2018-01-23T20:15:57.756Z,7.70
2018-01-23T20:18:26.026Z,9.37
2018-01-23T20:20:53.447Z,8.37
2018-01-23T20:23:20.946Z,9.40
2018-01-23T20:25:49.177Z,10.67
2018-01-23T20:28:16.610Z,9.20
2018-01-23T20:30:44.098Z,10.30
2018-01-23T20:33:11.592Z,10.50
2018-01-23T20:35:39.785Z,9.30
2018-01-23T20:38:07.275Z,9.10
2018-01-23T20:40:34.754Z,7.57
2018-01-23T20:43:02.234Z,7.10
2018-01-23T20:45:30.435Z,10.93
2018-01-23T20:47:57.879Z,9.40
2018-01-23T20:50:25.325Z,7.87
2018-01-23T20:52:52.867Z,7.87
2018-01-23T20:55:20.255Z,7.90
2018-01-23T20:57:47.750Z,6.60
2018-01-23T21:00:15.237Z,29.40
2018-01-23T21:02:42.721Z,43.50
2018-01-23T21:05:10.973Z,9.20
2018-01-23T21:07:38.453Z,8.40
2018-01-23T21:10:06.704Z,7.90
2018-01-23T21:12:34.164Z,6.83
2018-01-23T21:15:02.475Z,6.70
2018-01-23T21:17:29.898Z,7.37
2018-01-23T21:19:58.199Z,7.30
2018-01-23T21:22:25.680Z,7.07
2018-01-23T21:24:53.153Z,6.40
2018-01-23T21:27:20.638Z,6.57
2018-01-23T21:29:48.900Z,6.63
2018-01-23T21:32:16.374Z,6.57
2018-01-23T21:34:43.810Z,6.30
2018-01-23T21:37:11.288Z,5.70
2018-01-23T21:39:39.547Z,5.80
2018-01-23T21:42:07.046Z,6.17
2018-01-23T21:44:34.474Z,6.03
2018-01-23T21:47:02.683Z,5.50
2018-01-23T21:49:30.176Z,5.50
2018-01-23T21:51:57.645Z,5.10
2018-01-23T21:54:25.089Z,5.10
2018-01-23T21:56:52.531Z,4.57
2018-01-23T21:59:20.018Z,4.43
2018-01-23T22:01:47.489Z,4.80
2018-01-23T22:04:14.915Z,4.20
2018-01-23T22:06:42.359Z,4.50
2018-01-23T22:09:09.832Z,5.17
2018-01-23T22:11:37.254Z,5.10
2018-01-23T22:14:04.728Z,4.27
2018-01-23T22:16:32.157Z,4.20
2018-01-23T22:18:59.590Z,4.17
2018-01-23T22:21:27.795Z,3.87
2018-01-23T22:23:55.230Z,4.57
2018-01-23T22:26:22.702Z,4.17
2018-01-23T22:28:50.123Z,4.20
2018-01-23T22:31:18.331Z,3.83
2018-01-23T22:33:45.758Z,4.40
2018-01-23T22:36:13.967Z,3.60
2018-01-23T22:38:41.452Z,3.80
2018-01-23T22:41:08.878Z,3.77
2018-01-23T22:43:36.311Z,3.30
2018-01-23T22:46:03.792Z,3.43
2018-01-23T22:48:31.215Z,3.10
2018-01-23T22:50:59.419Z,3.37
2018-01-23T22:53:26.851Z,3.60
2018-01-23T22:55:55.059Z,3.17
2018-01-23T22:58:22.498Z,3.70
2018-01-23T23:00:49.946Z,3.70
2018-01-23T23:03:18.154Z,3.57
2018-01-23T23:05:45.602Z,3.00
2018-01-23T23:08:13.032Z,3.13
2018-01-23T23:10:40.479Z,4.23
2018-01-23T23:13:08.679Z,3.70
2018-01-23T23:15:36.114Z,3.10
2018-01-23T23:18:03.563Z,3.50
2018-01-23T23:20:31.762Z,3.90
2018-01-23T23:22:59.212Z,4.23
2018-01-23T23:25:26.651Z,3.30
2018-01-23T23:27:54.860Z,3.10
2018-01-23T23:30:22.294Z,3.43
2018-01-23T23:32:49.738Z,3.23
2018-01-23T23:35:17.934Z,2.97
2018-01-23T23:37:45.389Z,3.67
2018-01-23T23:40:12.824Z,3.30
2018-01-23T23:42:41.035Z,3.63
2018-01-23T23:45:08.471Z,3.47
2018-01-23T23:47:35.910Z,4.37
2018-01-23T23:50:04.118Z,2.83
2018-01-23T23:52:31.562Z,2.80
2018-01-23T23:54:58.991Z,3.40
2018-01-23T23:57:27.202Z,4.03
2018-01-23T23:59:54.633Z,3.33
